sensor_id;sensor_type;location;lat;lon;timestamp;P1;durP1;ratioP1;P2;durP2;ratioP2
38725;SDS011;24474;48.906;8.808;2023-02-01T00:01:48;4.60;;;2.30;;
38725;SDS011;24474;48.906;8.808;2023-02-01T00:04:13;4.28;;;2.25;;
38725;SDS011;24474;48.906;8.808;2023-02-01T00:06:39;4.10;;;2.60;;
38725;SDS011;24474;48.906;8.808;2023-02-01T00:09:05;4.47;;;2.70;;
38725;SDS011;24474;48.906;8.808;2023-02-01T00:11:30;3.97;;;2.55;;
38725;SDS011;24474;48.906;8.808;2023-02-01T00:13:56;3.45;;;2.40;;
38725;SDS011;24474;48.906;8.808;2023-02-01T00:16:25;4.10;;;2.72;;
38725;SDS011;24474;48.906;8.808;2023-02-01T00:19:03;4.75;;;2.67;;
38725;SDS011;24474;48.906;8.808;2023-02-01T00:21:34;4.80;;;2.30;;
38725;SDS011;24474;48.906;8.808;2023-02-01T00:24:00;4.10;;;2.60;;
38725;SDS011;24474;48.906;8.808;2023-02-01T00:26:33;3.63;;;2.20;;
38725;SDS011;24474;48.906;8.808;2023-02-01T00:29:10;3.72;;;2.35;;
38725;SDS011;24474;48.906;8.808;2023-02-01T00:31:39;2.60;;;2.10;;
38725;SDS011;24474;48.906;8.808;2023-02-01T00:34:11;3.00;;;2.03;;
38725;SDS011;24474;48.906;8.808;2023-02-01T00:36:40;4.05;;;2.20;;
38725;SDS011;24474;48.906;8.808;2023-02-01T00:39:06;4.40;;;2.47;;
38725;SDS011;24474;48.906;8.808;2023-02-01T00:41:32;3.97;;;2.20;;
38725;SDS011;24474;48.906;8.808;2023-02-01T00:43:57;2.55;;;1.95;;
38725;SDS011;24474;48.906;8.808;2023-02-01T00:46:24;3.50;;;2.40;;
38725;SDS011;24474;48.906;8.808;2023-02-01T00:48:51;4.75;;;2.08;;
38725;SDS011;24474;48.906;8.808;2023-02-01T00:51:20;3.50;;;2.05;;
38725;SDS011;24474;48.906;8.808;2023-02-01T00:53:47;3.33;;;2.25;;
38725;SDS011;24474;48.906;8.808;2023-02-01T00:56:15;3.95;;;2.30;;
38725;SDS011;24474;48.906;8.808;2023-02-01T00:58:42;3.15;;;1.90;;
38725;SDS011;24474;48.906;8.808;2023-02-01T01:03:52;3.45;;;2.10;;
38725;SDS011;24474;48.906;8.808;2023-02-01T01:09:34;2.50;;;1.95;;
38725;SDS011;24474;48.906;8.808;2023-02-01T01:12:01;3.95;;;1.92;;
38725;SDS011;24474;48.906;8.808;2023-02-01T01:14:30;2.38;;;1.80;;
38725;SDS011;24474;48.906;8.808;2023-02-01T01:16:57;2.20;;;1.57;;
38725;SDS011;24474;48.906;8.808;2023-02-01T01:19:24;2.92;;;1.75;;
38725;SDS011;24474;48.906;8.808;2023-02-01T01:21:51;2.67;;;1.88;;
38725;SDS011;24474;48.906;8.808;2023-02-01T01:24:18;1.90;;;1.65;;
38725;SDS011;24474;48.906;8.808;2023-02-01T01:26:45;2.33;;;1.67;;
38725;SDS011;24474;48.906;8.808;2023-02-01T01:29:11;2.20;;;1.70;;
38725;SDS011;24474;48.906;8.808;2023-02-01T01:31:39;3.45;;;1.77;;
38725;SDS011;24474;48.906;8.808;2023-02-01T01:34:06;3.35;;;1.98;;
38725;SDS011;24474;48.906;8.808;2023-02-01T01:36:33;2.58;;;1.60;;
38725;SDS011;24474;48.906;8.808;2023-02-01T01:38:58;1.83;;;1.67;;
38725;SDS011;24474;48.906;8.808;2023-02-01T01:41:25;2.47;;;1.80;;
38725;SDS011;24474;48.906;8.808;2023-02-01T01:43:55;4.10;;;2.00;;
38725;SDS011;24474;48.906;8.808;2023-02-01T01:46:34;2.83;;;1.98;;
38725;SDS011;24474;48.906;8.808;2023-02-01T01:51:53;4.03;;;1.88;;
38725;SDS011;24474;48.906;8.808;2023-02-01T01:54:24;2.75;;;1.70;;
38725;SDS011;24474;48.906;8.808;2023-02-01T01:57:08;3.28;;;2.10;;
38725;SDS011;24474;48.906;8.808;2023-02-01T01:59:37;2.75;;;1.83;;
38725;SDS011;24474;48.906;8.808;2023-02-01T02:02:07;2.28;;;1.70;;
38725;SDS011;24474;48.906;8.808;2023-02-01T02:04:34;2.40;;;1.70;;
38725;SDS011;24474;48.906;8.808;2023-02-01T02:09:36;3.05;;;1.88;;
38725;SDS011;24474;48.906;8.808;2023-02-01T02:12:02;1.90;;;1.40;;
38725;SDS011;24474;48.906;8.808;2023-02-01T02:14:28;3.45;;;1.83;;
38725;SDS011;24474;48.906;8.808;2023-02-01T02:42:31;2.70;;;1.67;;
38725;SDS011;24474;48.906;8.808;2023-02-01T02:54:18;2.53;;;1.30;;
38725;SDS011;24474;48.906;8.808;2023-02-01T02:57:07;4.22;;;1.70;;
38725;SDS011;24474;48.906;8.808;2023-02-01T02:59:55;2.30;;;1.35;;
38725;SDS011;24474;48.906;8.808;2023-02-01T03:02:42;1.92;;;1.45;;
38725;SDS011;24474;48.906;8.808;2023-02-01T03:05:36;2.40;;;1.63;;
38725;SDS011;24474;48.906;8.808;2023-02-01T03:25:17;2.17;;;1.30;;
38725;SDS011;24474;48.906;8.808;2023-02-01T03:27:27;2.63;;;1.40;;
38725;SDS011;24474;48.906;8.808;2023-02-01T03:30:02;1.63;;;1.25;;
38725;SDS011;24474;48.906;8.808;2023-02-01T03:32:30;1.75;;;1.27;;
38725;SDS011;24474;48.906;8.808;2023-02-01T03:35:16;1.23;;;1.08;;
38725;SDS011;24474;48.906;8.808;2023-02-01T03:37:43;1.60;;;1.17;;
38725;SDS011;24474;48.906;8.808;2023-02-01T03:40:09;1.35;;;1.20;;
38725;SDS011;24474;48.906;8.808;2023-02-01T03:42:38;1.83;;;1.35;;
38725;SDS011;24474;48.906;8.808;2023-02-01T03:45:10;1.55;;;1.30;;
38725;SDS011;24474;48.906;8.808;2023-02-01T03:47:42;2.72;;;1.30;;
38725;SDS011;24474;48.906;8.808;2023-02-01T03:50:13;2.83;;;1.45;;
38725;SDS011;24474;48.906;8.808;2023-02-01T03:52:42;1.75;;;1.25;;
38725;SDS011;24474;48.906;8.808;2023-02-01T03:55:16;1.92;;;1.30;;
38725;SDS011;24474;48.906;8.808;2023-02-01T03:58:07;2.28;;;1.50;;
38725;SDS011;24474;48.906;8.808;2023-02-01T04:00:38;1.92;;;1.33;;
38725;SDS011;24474;48.906;8.808;2023-02-01T04:03:04;3.28;;;1.50;;
38725;SDS011;24474;48.906;8.808;2023-02-01T04:05:32;2.40;;;1.50;;
38725;SDS011;24474;48.906;8.808;2023-02-01T04:07:58;2.10;;;1.40;;
38725;SDS011;24474;48.906;8.808;2023-02-01T04:10:24;2.22;;;1.50;;
38725;SDS011;24474;48.906;8.808;2023-02-01T04:12:51;2.70;;;1.48;;
38725;SDS011;24474;48.906;8.808;2023-02-01T04:15:17;2.42;;;1.50;;
38725;SDS011;24474;48.906;8.808;2023-02-01T04:17:43;1.83;;;1.30;;
38725;SDS011;24474;48.906;8.808;2023-02-01T04:20:09;2.90;;;1.60;;
38725;SDS011;24474;48.906;8.808;2023-02-01T04:22:36;2.45;;;1.48;;
38725;SDS011;24474;48.906;8.808;2023-02-01T04:25:01;3.65;;;1.50;;
38725;SDS011;24474;48.906;8.808;2023-02-01T04:27:27;2.20;;;1.38;;
38725;SDS011;24474;48.906;8.808;2023-02-01T04:29:52;2.10;;;1.40;;
38725;SDS011;24474;48.906;8.808;2023-02-01T04:32:18;2.28;;;1.40;;
38725;SDS011;24474;48.906;8.808;2023-02-01T04:34:45;1.88;;;1.23;;
38725;SDS011;24474;48.906;8.808;2023-02-01T04:37:11;2.42;;;1.40;;
38725;SDS011;24474;48.906;8.808;2023-02-01T04:39:36;3.28;;;1.58;;
38725;SDS011;24474;48.906;8.808;2023-02-01T04:42:02;3.67;;;1.80;;
38725;SDS011;24474;48.906;8.808;2023-02-01T04:44:28;3.67;;;1.77;;
38725;SDS011;24474;48.906;8.808;2023-02-01T04:46:54;2.25;;;1.38;;
38725;SDS011;24474;48.906;8.808;2023-02-01T04:49:20;4.65;;;1.95;;
38725;SDS011;24474;48.906;8.808;2023-02-01T04:51:50;6.38;;;3.42;;
38725;SDS011;24474;48.906;8.808;2023-02-01T04:54:16;4.70;;;2.80;;
38725;SDS011;24474;48.906;8.808;2023-02-01T04:56:41;4.20;;;2.70;;
38725;SDS011;24474;48.906;8.808;2023-02-01T04:59:07;1.73;;;1.23;;
38725;SDS011;24474;48.906;8.808;2023-02-01T05:01:32;3.65;;;1.42;;
38725;SDS011;24474;48.906;8.808;2023-02-01T05:03:58;1.80;;;1.38;;
38725;SDS011;24474;48.906;8.808;2023-02-01T05:06:24;3.10;;;1.63;;
38725;SDS011;24474;48.906;8.808;2023-02-01T05:08:50;3.75;;;2.00;;
38725;SDS011;24474;48.906;8.808;2023-02-01T05:11:15;2.85;;;1.80;;
38725;SDS011;24474;48.906;8.808;2023-02-01T05:14:00;5.15;;;1.90;;
38725;SDS011;24474;48.906;8.808;2023-02-01T05:16:26;4.00;;;1.75;;
38725;SDS011;24474;48.906;8.808;2023-02-01T05:18:52;3.50;;;1.73;;
38725;SDS011;24474;48.906;8.808;2023-02-01T05:21:18;4.03;;;1.67;;
38725;SDS011;24474;48.906;8.808;2023-02-01T05:23:44;3.45;;;1.63;;
38725;SDS011;24474;48.906;8.808;2023-02-01T05:26:28;2.55;;;1.58;;
38725;SDS011;24474;48.906;8.808;2023-02-01T05:28:53;3.45;;;1.67;;
38725;SDS011;24474;48.906;8.808;2023-02-01T05:31:19;4.10;;;2.10;;
38725;SDS011;24474;48.906;8.808;2023-02-01T05:33:46;3.08;;;1.58;;
38725;SDS011;24474;48.906;8.808;2023-02-01T05:36:13;2.60;;;1.60;;
38725;SDS011;24474;48.906;8.808;2023-02-01T05:38:39;3.40;;;1.95;;
38725;SDS011;24474;48.906;8.808;2023-02-01T05:41:04;2.95;;;1.52;;
38725;SDS011;24474;48.906;8.808;2023-02-01T05:43:30;2.90;;;1.63;;
38725;SDS011;24474;48.906;8.808;2023-02-01T05:45:56;3.30;;;1.80;;
38725;SDS011;24474;48.906;8.808;2023-02-01T05:48:23;2.50;;;1.70;;
38725;SDS011;24474;48.906;8.808;2023-02-01T05:50:50;3.55;;;1.73;;
38725;SDS011;24474;48.906;8.808;2023-02-01T05:53:15;2.75;;;1.90;;
38725;SDS011;24474;48.906;8.808;2023-02-01T05:55:43;2.97;;;2.17;;
38725;SDS011;24474;48.906;8.808;2023-02-01T05:58:09;5.43;;;2.45;;
38725;SDS011;24474;48.906;8.808;2023-02-01T06:00:35;5.63;;;2.40;;
38725;SDS011;24474;48.906;8.808;2023-02-01T06:03:02;5.10;;;2.88;;
38725;SDS011;24474;48.906;8.808;2023-02-01T06:05:29;5.35;;;2.70;;
38725;SDS011;24474;48.906;8.808;2023-02-01T06:07:55;5.05;;;3.10;;
38725;SDS011;24474;48.906;8.808;2023-02-01T06:10:21;6.07;;;2.80;;
38725;SDS011;24474;48.906;8.808;2023-02-01T06:12:48;4.47;;;2.65;;
38725;SDS011;24474;48.906;8.808;2023-02-01T06:15:15;3.60;;;2.55;;
38725;SDS011;24474;48.906;8.808;2023-02-01T06:17:45;6.80;;;3.28;;
38725;SDS011;24474;48.906;8.808;2023-02-01T06:20:13;5.93;;;3.10;;
38725;SDS011;24474;48.906;8.808;2023-02-01T06:22:40;5.57;;;3.13;;
38725;SDS011;24474;48.906;8.808;2023-02-01T06:25:07;5.50;;;3.50;;
38725;SDS011;24474;48.906;8.808;2023-02-01T06:27:35;5.40;;;3.45;;
38725;SDS011;24474;48.906;8.808;2023-02-01T06:30:03;6.55;;;3.95;;
38725;SDS011;24474;48.906;8.808;2023-02-01T06:32:30;7.55;;;3.95;;
38725;SDS011;24474;48.906;8.808;2023-02-01T06:34:57;10.43;;;4.45;;
38725;SDS011;24474;48.906;8.808;2023-02-01T06:37:24;7.50;;;3.80;;
38725;SDS011;24474;48.906;8.808;2023-02-01T06:39:52;9.48;;;4.20;;
38725;SDS011;24474;48.906;8.808;2023-02-01T06:42:18;7.57;;;3.80;;
38725;SDS011;24474;48.906;8.808;2023-02-01T06:44:43;8.23;;;3.88;;
38725;SDS011;24474;48.906;8.808;2023-02-01T06:47:09;10.75;;;4.18;;
38725;SDS011;24474;48.906;8.808;2023-02-01T06:49:36;9.18;;;3.95;;
38725;SDS011;24474;48.906;8.808;2023-02-01T06:52:01;10.18;;;4.03;;
38725;SDS011;24474;48.906;8.808;2023-02-01T06:54:27;8.60;;;4.13;;
38725;SDS011;24474;48.906;8.808;2023-02-01T06:56:53;7.95;;;3.90;;
38725;SDS011;24474;48.906;8.808;2023-02-01T06:59:20;8.38;;;4.15;;
38725;SDS011;24474;48.906;8.808;2023-02-01T07:01:47;9.45;;;4.47;;
38725;SDS011;24474;48.906;8.808;2023-02-01T07:04:13;11.20;;;4.32;;
38725;SDS011;24474;48.906;8.808;2023-02-01T07:06:39;10.95;;;4.35;;
38725;SDS011;24474;48.906;8.808;2023-02-01T07:09:06;6.30;;;3.75;;
38725;SDS011;24474;48.906;8.808;2023-02-01T07:11:32;9.95;;;4.28;;
38725;SDS011;24474;48.906;8.808;2023-02-01T07:14:03;8.38;;;4.40;;
38725;SDS011;24474;48.906;8.808;2023-02-01T07:16:29;9.30;;;3.97;;
38725;SDS011;24474;48.906;8.808;2023-02-01T07:18:56;9.10;;;5.53;;
38725;SDS011;24474;48.906;8.808;2023-02-01T07:21:21;11.38;;;4.13;;
38725;SDS011;24474;48.906;8.808;2023-02-01T07:23:47;11.05;;;5.47;;
38725;SDS011;24474;48.906;8.808;2023-02-01T07:26:13;15.13;;;7.00;;
38725;SDS011;24474;48.906;8.808;2023-02-01T07:28:39;11.38;;;4.32;;
38725;SDS011;24474;48.906;8.808;2023-02-01T07:31:11;9.20;;;4.63;;
38725;SDS011;24474;48.906;8.808;2023-02-01T07:33:40;7.47;;;4.50;;
38725;SDS011;24474;48.906;8.808;2023-02-01T07:36:10;10.95;;;4.45;;
38725;SDS011;24474;48.906;8.808;2023-02-01T07:38:37;10.98;;;4.45;;
38725;SDS011;24474;48.906;8.808;2023-02-01T07:41:04;14.55;;;4.70;;
38725;SDS011;24474;48.906;8.808;2023-02-01T07:43:34;12.20;;;4.50;;
38725;SDS011;24474;48.906;8.808;2023-02-01T07:46:02;9.23;;;4.78;;
38725;SDS011;24474;48.906;8.808;2023-02-01T07:48:29;11.93;;;4.35;;
38725;SDS011;24474;48.906;8.808;2023-02-01T07:50:59;15.82;;;4.72;;
38725;SDS011;24474;48.906;8.808;2023-02-01T07:53:36;12.15;;;4.38;;
38725;SDS011;24474;48.906;8.808;2023-02-01T07:56:02;9.85;;;4.55;;
38725;SDS011;24474;48.906;8.808;2023-02-01T07:58:29;12.55;;;4.22;;
38725;SDS011;24474;48.906;8.808;2023-02-01T08:00:55;9.40;;;3.97;;
38725;SDS011;24474;48.906;8.808;2023-02-01T08:03:40;10.85;;;4.30;;
38725;SDS011;24474;48.906;8.808;2023-02-01T08:06:07;8.93;;;4.30;;
38725;SDS011;24474;48.906;8.808;2023-02-01T08:08:34;12.55;;;4.50;;
38725;SDS011;24474;48.906;8.808;2023-02-01T08:11:00;13.07;;;4.20;;
38725;SDS011;24474;48.906;8.808;2023-02-01T08:13:29;9.73;;;4.00;;
38725;SDS011;24474;48.906;8.808;2023-02-01T08:16:00;14.68;;;4.72;;
38725;SDS011;24474;48.906;8.808;2023-02-01T08:18:29;15.68;;;4.38;;
38725;SDS011;24474;48.906;8.808;2023-02-01T08:20:55;10.05;;;3.85;;
38725;SDS011;24474;48.906;8.808;2023-02-01T08:23:23;12.30;;;4.00;;
38725;SDS011;24474;48.906;8.808;2023-02-01T08:25:49;10.35;;;3.97;;
38725;SDS011;24474;48.906;8.808;2023-02-01T08:28:16;8.48;;;3.90;;
38725;SDS011;24474;48.906;8.808;2023-02-01T08:30:41;11.93;;;3.95;;
38725;SDS011;24474;48.906;8.808;2023-02-01T08:33:07;11.93;;;3.72;;
38725;SDS011;24474;48.906;8.808;2023-02-01T08:35:38;9.20;;;3.65;;
38725;SDS011;24474;48.906;8.808;2023-02-01T08:38:05;13.77;;;3.88;;
38725;SDS011;24474;48.906;8.808;2023-02-01T08:40:34;11.95;;;3.42;;
38725;SDS011;24474;48.906;8.808;2023-02-01T08:43:01;11.63;;;3.55;;
38725;SDS011;24474;48.906;8.808;2023-02-01T08:45:27;11.18;;;3.33;;
38725;SDS011;24474;48.906;8.808;2023-02-01T08:47:56;10.30;;;4.07;;
38725;SDS011;24474;48.906;8.808;2023-02-01T08:50:23;11.90;;;3.45;;
38725;SDS011;24474;48.906;8.808;2023-02-01T08:52:50;13.02;;;3.60;;
38725;SDS011;24474;48.906;8.808;2023-02-01T08:55:18;11.00;;;3.15;;
38725;SDS011;24474;48.906;8.808;2023-02-01T08:57:44;11.10;;;3.50;;
38725;SDS011;24474;48.906;8.808;2023-02-01T09:00:11;9.07;;;3.28;;
38725;SDS011;24474;48.906;8.808;2023-02-01T09:02:38;7.28;;;2.97;;
38725;SDS011;24474;48.906;8.808;2023-02-01T09:05:07;13.30;;;4.00;;
38725;SDS011;24474;48.906;8.808;2023-02-01T09:07:34;11.30;;;3.80;;
38725;SDS011;24474;48.906;8.808;2023-02-01T09:10:08;13.15;;;3.72;;
38725;SDS011;24474;48.906;8.808;2023-02-01T09:12:36;12.80;;;3.58;;
38725;SDS011;24474;48.906;8.808;2023-02-01T09:15:05;11.75;;;3.88;;
38725;SDS011;24474;48.906;8.808;2023-02-01T09:17:32;15.43;;;3.58;;
38725;SDS011;24474;48.906;8.808;2023-02-01T09:19:57;15.98;;;3.55;;
38725;SDS011;24474;48.906;8.808;2023-02-01T09:22:27;14.55;;;3.50;;
38725;SDS011;24474;48.906;8.808;2023-02-01T09:24:53;12.85;;;3.83;;
38725;SDS011;24474;48.906;8.808;2023-02-01T09:27:19;10.07;;;3.50;;
38725;SDS011;24474;48.906;8.808;2023-02-01T09:29:49;11.10;;;2.80;;
38725;SDS011;24474;48.906;8.808;2023-02-01T09:32:24;13.07;;;3.13;;
38725;SDS011;24474;48.906;8.808;2023-02-01T09:34:57;14.57;;;3.90;;
38725;SDS011;24474;48.906;8.808;2023-02-01T09:37:23;11.50;;;3.88;;
38725;SDS011;24474;48.906;8.808;2023-02-01T09:39:56;12.65;;;3.17;;
38725;SDS011;24474;48.906;8.808;2023-02-01T09:45:20;11.65;;;3.70;;
38725;SDS011;24474;48.906;8.808;2023-02-01T09:48:20;14.38;;;3.47;;
38725;SDS011;24474;48.906;8.808;2023-02-01T09:50:54;13.75;;;3.47;;
38725;SDS011;24474;48.906;8.808;2023-02-01T09:53:34;11.95;;;2.95;;
38725;SDS011;24474;48.906;8.808;2023-02-01T09:56:26;12.88;;;2.90;;
38725;SDS011;24474;48.906;8.808;2023-02-01T10:02:24;12.35;;;3.22;;
38725;SDS011;24474;48.906;8.808;2023-02-01T10:04:56;13.52;;;3.13;;
38725;SDS011;24474;48.906;8.808;2023-02-01T10:10:46;17.48;;;3.85;;
38725;SDS011;24474;48.906;8.808;2023-02-01T10:15:55;12.18;;;3.08;;
38725;SDS011;24474;48.906;8.808;2023-02-01T10:21:54;18.27;;;5.30;;
38725;SDS011;24474;48.906;8.808;2023-02-01T10:24:42;16.95;;;4.28;;
38725;SDS011;24474;48.906;8.808;2023-02-01T10:27:55;21.02;;;5.60;;
38725;SDS011;24474;48.906;8.808;2023-02-01T10:32:47;17.13;;;5.07;;
38725;SDS011;24474;48.906;8.808;2023-02-01T10:35:18;20.70;;;6.18;;
38725;SDS011;24474;48.906;8.808;2023-02-01T10:37:52;17.90;;;4.85;;
38725;SDS011;24474;48.906;8.808;2023-02-01T10:40:24;17.00;;;4.10;;
38725;SDS011;24474;48.906;8.808;2023-02-01T10:42:51;13.60;;;3.90;;
38725;SDS011;24474;48.906;8.808;2023-02-01T10:45:24;11.48;;;3.33;;
38725;SDS011;24474;48.906;8.808;2023-02-01T10:47:58;21.08;;;5.50;;
38725;SDS011;24474;48.906;8.808;2023-02-01T10:53:35;12.93;;;3.05;;
38725;SDS011;24474;48.906;8.808;2023-02-01T10:56:21;13.27;;;2.97;;
38725;SDS011;24474;48.906;8.808;2023-02-01T10:58:48;11.20;;;3.67;;
38725;SDS011;24474;48.906;8.808;2023-02-01T11:01:24;13.18;;;3.30;;
38725;SDS011;24474;48.906;8.808;2023-02-01T11:03:59;14.98;;;3.58;;
38725;SDS011;24474;48.906;8.808;2023-02-01T11:09:00;10.43;;;2.92;;
38725;SDS011;24474;48.906;8.808;2023-02-01T11:11:55;11.35;;;2.92;;
38725;SDS011;24474;48.906;8.808;2023-02-01T11:14:32;12.55;;;2.80;;
38725;SDS011;24474;48.906;8.808;2023-02-01T11:17:12;12.40;;;3.05;;
38725;SDS011;24474;48.906;8.808;2023-02-01T11:19:59;10.13;;;3.00;;
38725;SDS011;24474;48.906;8.808;2023-02-01T11:22:26;10.93;;;2.63;;
38725;SDS011;24474;48.906;8.808;2023-02-01T11:24:54;12.95;;;3.22;;
38725;SDS011;24474;48.906;8.808;2023-02-01T11:27:21;11.88;;;2.80;;
38725;SDS011;24474;48.906;8.808;2023-02-01T11:29:55;11.50;;;2.95;;
38725;SDS011;24474;48.906;8.808;2023-02-01T11:32:24;12.73;;;2.95;;
38725;SDS011;24474;48.906;8.808;2023-02-01T11:34:52;10.52;;;2.63;;
38725;SDS011;24474;48.906;8.808;2023-02-01T11:37:27;8.88;;;2.88;;
38725;SDS011;24474;48.906;8.808;2023-02-01T11:43:29;10.95;;;2.95;;
38725;SDS011;24474;48.906;8.808;2023-02-01T11:45:59;13.98;;;2.97;;
38725;SDS011;24474;48.906;8.808;2023-02-01T11:48:28;9.93;;;3.10;;
38725;SDS011;24474;48.906;8.808;2023-02-01T11:57:04;11.77;;;2.72;;
38725;SDS011;24474;48.906;8.808;2023-02-01T12:11:16;11.60;;;2.70;;
38725;SDS011;24474;48.906;8.808;2023-02-01T12:16:59;10.98;;;2.53;;
38725;SDS011;24474;48.906;8.808;2023-02-01T12:25:43;10.65;;;2.95;;
38725;SDS011;24474;48.906;8.808;2023-02-01T12:28:57;9.77;;;2.78;;
38725;SDS011;24474;48.906;8.808;2023-02-01T12:34:43;8.38;;;2.80;;
38725;SDS011;24474;48.906;8.808;2023-02-01T12:38:16;17.48;;;3.60;;
38725;SDS011;24474;48.906;8.808;2023-02-01T12:43:21;11.18;;;3.22;;
38725;SDS011;24474;48.906;8.808;2023-02-01T12:46:04;11.75;;;3.20;;
38725;SDS011;24474;48.906;8.808;2023-02-01T12:48:40;13.98;;;3.65;;
38725;SDS011;24474;48.906;8.808;2023-02-01T12:57:00;11.88;;;3.60;;
38725;SDS011;24474;48.906;8.808;2023-02-01T12:59:38;12.75;;;3.17;;
38725;SDS011;24474;48.906;8.808;2023-02-01T13:02:21;11.77;;;3.30;;
38725;SDS011;24474;48.906;8.808;2023-02-01T13:08:25;12.93;;;3.10;;
38725;SDS011;24474;48.906;8.808;2023-02-01T13:11:15;9.75;;;3.30;;
38725;SDS011;24474;48.906;8.808;2023-02-01T13:17:18;12.38;;;2.88;;
38725;SDS011;24474;48.906;8.808;2023-02-01T13:19:59;10.30;;;3.50;;
38725;SDS011;24474;48.906;8.808;2023-02-01T13:22:39;14.27;;;3.33;;
38725;SDS011;24474;48.906;8.808;2023-02-01T13:25:19;16.77;;;3.45;;
38725;SDS011;24474;48.906;8.808;2023-02-01T13:43:58;10.90;;;3.40;;
38725;SDS011;24474;48.906;8.808;2023-02-01T13:49:20;14.63;;;3.40;;
38725;SDS011;24474;48.906;8.808;2023-02-01T13:51:59;18.17;;;6.80;;
38725;SDS011;24474;48.906;8.808;2023-02-01T13:54:39;16.08;;;7.53;;
38725;SDS011;24474;48.906;8.808;2023-02-01T14:00:07;15.60;;;8.05;;
38725;SDS011;24474;48.906;8.808;2023-02-01T14:08:13;10.93;;;3.60;;
38725;SDS011;24474;48.906;8.808;2023-02-01T14:11:32;9.88;;;3.10;;
38725;SDS011;24474;48.906;8.808;2023-02-01T14:19:37;9.82;;;3.03;;
38725;SDS011;24474;48.906;8.808;2023-02-01T14:24:55;15.60;;;3.35;;
38725;SDS011;24474;48.906;8.808;2023-02-01T14:27:28;14.75;;;3.22;;
38725;SDS011;24474;48.906;8.808;2023-02-01T14:30:05;9.38;;;3.10;;
38725;SDS011;24474;48.906;8.808;2023-02-01T14:32:37;12.07;;;3.58;;
38725;SDS011;24474;48.906;8.808;2023-02-01T14:35:08;13.50;;;3.50;;
38725;SDS011;24474;48.906;8.808;2023-02-01T14:37:59;16.42;;;3.35;;
38725;SDS011;24474;48.906;8.808;2023-02-01T14:40:28;10.98;;;3.08;;
38725;SDS011;24474;48.906;8.808;2023-02-01T14:42:59;15.38;;;2.95;;
38725;SDS011;24474;48.906;8.808;2023-02-01T14:50:36;12.05;;;3.38;;
38725;SDS011;24474;48.906;8.808;2023-02-01T14:55:48;10.57;;;3.05;;
38725;SDS011;24474;48.906;8.808;2023-02-01T15:01:23;14.45;;;3.10;;
38725;SDS011;24474;48.906;8.808;2023-02-01T15:06:44;12.50;;;2.70;;
38725;SDS011;24474;48.906;8.808;2023-02-01T15:09:15;11.55;;;3.25;;
38725;SDS011;24474;48.906;8.808;2023-02-01T15:11:55;11.02;;;2.35;;
38725;SDS011;24474;48.906;8.808;2023-02-01T15:14:25;16.17;;;2.92;;
38725;SDS011;24474;48.906;8.808;2023-02-01T15:16:59;13.32;;;3.40;;
38725;SDS011;24474;48.906;8.808;2023-02-01T15:19:30;12.68;;;2.60;;
38725;SDS011;24474;48.906;8.808;2023-02-01T15:24:32;10.77;;;3.13;;
38725;SDS011;24474;48.906;8.808;2023-02-01T15:27:04;10.13;;;2.60;;
38725;SDS011;24474;48.906;8.808;2023-02-01T15:29:37;16.80;;;3.47;;
38725;SDS011;24474;48.906;8.808;2023-02-01T15:32:15;13.63;;;3.17;;
38725;SDS011;24474;48.906;8.808;2023-02-01T15:35:00;13.82;;;3.13;;
38725;SDS011;24474;48.906;8.808;2023-02-01T15:37:34;11.43;;;3.00;;
38725;SDS011;24474;48.906;8.808;2023-02-01T15:42:52;8.75;;;2.70;;
38725;SDS011;24474;48.906;8.808;2023-02-01T15:45:34;14.18;;;2.80;;
38725;SDS011;24474;48.906;8.808;2023-02-01T15:48:11;12.68;;;3.33;;
38725;SDS011;24474;48.906;8.808;2023-02-01T15:50:54;14.60;;;3.22;;
38725;SDS011;24474;48.906;8.808;2023-02-01T15:53:23;10.30;;;2.78;;
38725;SDS011;24474;48.906;8.808;2023-02-01T15:56:05;11.73;;;3.00;;
38725;SDS011;24474;48.906;8.808;2023-02-01T15:58:34;13.40;;;3.08;;
38725;SDS011;24474;48.906;8.808;2023-02-01T16:01:20;13.48;;;2.95;;
38725;SDS011;24474;48.906;8.808;2023-02-01T16:07:02;13.65;;;3.47;;
38725;SDS011;24474;48.906;8.808;2023-02-01T16:12:46;14.98;;;4.43;;
38725;SDS011;24474;48.906;8.808;2023-02-01T16:15:17;22.27;;;8.10;;
38725;SDS011;24474;48.906;8.808;2023-02-01T16:17:44;21.38;;;6.05;;
38725;SDS011;24474;48.906;8.808;2023-02-01T16:20:22;18.77;;;3.92;;
38725;SDS011;24474;48.906;8.808;2023-02-01T16:22:52;11.88;;;2.92;;
38725;SDS011;24474;48.906;8.808;2023-02-01T16:25:21;12.75;;;3.08;;
38725;SDS011;24474;48.906;8.808;2023-02-01T16:27:54;12.23;;;4.22;;
38725;SDS011;24474;48.906;8.808;2023-02-01T16:30:20;13.55;;;3.15;;
38725;SDS011;24474;48.906;8.808;2023-02-01T16:32:56;10.73;;;3.00;;
38725;SDS011;24474;48.906;8.808;2023-02-01T16:35:35;14.60;;;4.53;;
38725;SDS011;24474;48.906;8.808;2023-02-01T16:38:08;17.15;;;5.65;;
38725;SDS011;24474;48.906;8.808;2023-02-01T16:40:42;19.35;;;7.35;;
38725;SDS011;24474;48.906;8.808;2023-02-01T16:43:19;10.02;;;3.20;;
38725;SDS011;24474;48.906;8.808;2023-02-01T16:45:47;11.07;;;3.35;;
38725;SDS011;24474;48.906;8.808;2023-02-01T16:48:35;15.98;;;3.83;;
38725;SDS011;24474;48.906;8.808;2023-02-01T16:51:09;15.32;;;3.60;;
38725;SDS011;24474;48.906;8.808;2023-02-01T16:53:38;13.02;;;3.40;;
38725;SDS011;24474;48.906;8.808;2023-02-01T16:56:09;13.43;;;4.00;;
38725;SDS011;24474;48.906;8.808;2023-02-01T16:58:39;11.77;;;3.30;;
38725;SDS011;24474;48.906;8.808;2023-02-01T17:01:07;15.32;;;3.33;;
38725;SDS011;24474;48.906;8.808;2023-02-01T17:03:37;11.43;;;3.25;;
38725;SDS011;24474;48.906;8.808;2023-02-01T17:06:03;10.93;;;2.83;;
38725;SDS011;24474;48.906;8.808;2023-02-01T17:08:31;11.85;;;3.22;;
38725;SDS011;24474;48.906;8.808;2023-02-01T17:11:02;10.45;;;3.15;;
38725;SDS011;24474;48.906;8.808;2023-02-01T17:13:29;14.50;;;3.35;;
38725;SDS011;24474;48.906;8.808;2023-02-01T17:16:00;12.15;;;3.42;;
38725;SDS011;24474;48.906;8.808;2023-02-01T17:19:04;14.75;;;3.63;;
38725;SDS011;24474;48.906;8.808;2023-02-01T17:21:38;15.02;;;2.90;;
38725;SDS011;24474;48.906;8.808;2023-02-01T17:24:22;14.23;;;3.17;;
38725;SDS011;24474;48.906;8.808;2023-02-01T17:26:50;13.18;;;3.50;;
38725;SDS011;24474;48.906;8.808;2023-02-01T17:29:16;9.75;;;3.22;;
38725;SDS011;24474;48.906;8.808;2023-02-01T17:31:43;20.10;;;5.28;;
38725;SDS011;24474;48.906;8.808;2023-02-01T17:34:13;17.00;;;4.85;;
38725;SDS011;24474;48.906;8.808;2023-02-01T17:36:40;20.58;;;6.90;;
38725;SDS011;24474;48.906;8.808;2023-02-01T17:39:06;12.20;;;4.22;;
38725;SDS011;24474;48.906;8.808;2023-02-01T17:41:32;13.73;;;3.55;;
38725;SDS011;24474;48.906;8.808;2023-02-01T17:43:58;11.30;;;4.25;;
38725;SDS011;24474;48.906;8.808;2023-02-01T17:46:24;12.20;;;3.38;;
38725;SDS011;24474;48.906;8.808;2023-02-01T17:48:54;12.27;;;3.40;;
38725;SDS011;24474;48.906;8.808;2023-02-01T17:51:21;11.10;;;3.80;;
38725;SDS011;24474;48.906;8.808;2023-02-01T17:53:51;14.45;;;4.20;;
38725;SDS011;24474;48.906;8.808;2023-02-01T17:56:18;18.35;;;5.05;;
38725;SDS011;24474;48.906;8.808;2023-02-01T17:58:46;14.60;;;3.50;;
38725;SDS011;24474;48.906;8.808;2023-02-01T18:01:13;14.63;;;3.30;;
38725;SDS011;24474;48.906;8.808;2023-02-01T18:03:47;12.40;;;3.67;;
38725;SDS011;24474;48.906;8.808;2023-02-01T18:06:14;13.20;;;3.40;;
38725;SDS011;24474;48.906;8.808;2023-02-01T18:08:42;11.55;;;3.10;;
38725;SDS011;24474;48.906;8.808;2023-02-01T18:11:15;10.25;;;3.03;;
38725;SDS011;24474;48.906;8.808;2023-02-01T18:13:42;14.55;;;4.05;;
38725;SDS011;24474;48.906;8.808;2023-02-01T18:16:23;12.77;;;3.95;;
38725;SDS011;24474;48.906;8.808;2023-02-01T18:18:58;14.25;;;3.70;;
38725;SDS011;24474;48.906;8.808;2023-02-01T18:21:33;16.02;;;3.55;;